createdAt,value
2018-03-24T00:01:38.005Z,97702.45
2018-03-24T00:04:11.590Z,97701.36
2018-03-24T00:06:45.095Z,97693.64
2018-03-24T00:09:18.793Z,97693.84
2018-03-24T00:11:52.377Z,97697.33
2018-03-24T00:14:26.114Z,97684.50
2018-03-24T00:16:59.704Z,97690.40
2018-03-24T00:19:33.382Z,97690.38
2018-03-24T00:22:06.882Z,97693.46
2018-03-24T00:24:40.513Z,97681.85
2018-03-24T00:27:14.070Z,97689.91
2018-03-24T00:29:47.642Z,97680.17
2018-03-24T00:32:21.274Z,97677.50
2018-03-24T00:34:54.834Z,97679.05
2018-03-24T00:37:28.454Z,97672.04
2018-03-24T00:40:02.105Z,97674.94
2018-03-24T00:42:35.672Z,97676.09
2018-03-24T00:45:09.257Z,97677.38
2018-03-24T00:47:42.821Z,97673.20
2018-03-24T00:50:16.474Z,97672.38
2018-03-24T00:52:50.154Z,97679.69
2018-03-24T00:55:23.684Z,97668.97
2018-03-24T00:57:57.409Z,97676.34
2018-03-24T01:00:31.011Z,97674.77
2018-03-24T01:03:04.613Z,97682.89
2018-03-24T01:05:38.368Z,97685.13
2018-03-24T01:08:12.037Z,97675.59
2018-03-24T01:10:45.641Z,97678.46
2018-03-24T01:13:19.228Z,97678.66
2018-03-24T01:15:53.092Z,97678.09
2018-03-24T01:18:26.839Z,97677.64
2018-03-24T01:21:00.545Z,97678.52
2018-03-24T01:23:34.185Z,97685.66
2018-03-24T01:26:07.761Z,97674.98
2018-03-24T01:28:41.523Z,97674.92
2018-03-24T01:31:15.077Z,97675.77
2018-03-24T01:33:48.764Z,97679.45
2018-03-24T01:42:20.866Z,97687.18
2018-03-24T01:44:54.486Z,97679.27
2018-03-24T01:47:28.173Z,97684.76
2018-03-24T01:50:01.886Z,97680.74
2018-03-24T01:52:35.604Z,97680.77
2018-03-24T01:55:09.281Z,97680.11
2018-03-24T01:57:42.955Z,97677.91
2018-03-24T02:00:16.560Z,97676.72
2018-03-24T02:02:50.213Z,97677.98
2018-03-24T02:05:23.934Z,97674.48
2018-03-24T02:07:57.614Z,97666.08
2018-03-24T02:10:31.245Z,97672.39
2018-03-24T02:13:04.977Z,97673.26
2018-03-24T02:15:38.630Z,97656.67
2018-03-24T02:18:12.249Z,97656.69
2018-03-24T02:20:45.908Z,97657.75
2018-03-24T02:23:19.611Z,97654.41
2018-03-24T02:25:53.409Z,97661.58
2018-03-24T02:28:26.885Z,97659.66
2018-03-24T02:31:00.557Z,97657.73
2018-03-24T02:33:34.263Z,97651.47
2018-03-24T02:36:07.922Z,97651.09
2018-03-24T02:38:41.586Z,97654.47
2018-03-24T02:41:15.254Z,97656.91
2018-03-24T02:43:48.854Z,97649.86
2018-03-24T02:49:21.914Z,97650.20
2018-03-24T02:51:55.524Z,97660.49
2018-03-24T02:54:29.193Z,97656.74
2018-03-24T02:57:02.728Z,97659.67
2018-03-24T02:59:36.478Z,97655.27
2018-03-24T03:02:10.050Z,97657.96
2018-03-24T03:04:43.690Z,97663.07
2018-03-24T03:07:17.230Z,97663.63
2018-03-24T03:09:51.026Z,97664.88
2018-03-24T03:12:24.711Z,97664.23
2018-03-24T03:14:58.326Z,97670.44
2018-03-24T03:17:31.790Z,97664.85
2018-03-24T03:20:05.398Z,97662.67
2018-03-24T03:22:39.075Z,97672.43
2018-03-24T03:25:18.393Z,97662.53
2018-03-24T03:27:51.979Z,97661.31
2018-03-24T03:33:24.307Z,97666.64
2018-03-24T03:35:57.990Z,97666.44
2018-03-24T03:38:31.642Z,97666.78
2018-03-24T03:41:05.326Z,97663.67
2018-03-24T03:43:38.868Z,97665.43
2018-03-24T03:46:12.487Z,97671.20
2018-03-24T03:48:46.026Z,97664.22
2018-03-24T03:51:19.654Z,97668.91
2018-03-24T03:53:53.415Z,97662.64
2018-03-24T03:56:27.023Z,97657.58
2018-03-24T03:59:00.563Z,97663.63
2018-03-24T04:01:34.319Z,97661.71
2018-03-24T04:04:08.026Z,97657.10
2018-03-24T04:06:41.699Z,97662.20
2018-03-24T04:09:15.378Z,97656.96
2018-03-24T04:11:49.053Z,97656.69
2018-03-24T04:14:23.142Z,97660.66
2018-03-24T04:16:56.736Z,97655.81
2018-03-24T04:19:30.378Z,97654.36
2018-03-24T04:22:04.045Z,97656.92
2018-03-24T04:24:37.651Z,97656.38
2018-03-24T04:30:10.403Z,97655.97
2018-03-24T04:32:44.062Z,97667.75
2018-03-24T04:35:17.706Z,97668.05
2018-03-24T04:37:51.363Z,97671.13
2018-03-24T04:40:24.983Z,97658.20
2018-03-24T04:42:58.747Z,97663.22
2018-03-24T04:45:32.340Z,97667.36
2018-03-24T04:48:05.928Z,97665.38
2018-03-24T04:50:39.614Z,97669.09
2018-03-24T04:53:13.329Z,97662.84
2018-03-24T04:55:46.907Z,97665.66
2018-03-24T04:58:20.671Z,97667.25
2018-03-24T05:00:54.471Z,97654.24
2018-03-24T05:03:28.286Z,97661.77
2018-03-24T05:06:01.909Z,97654.84
2018-03-24T05:08:35.622Z,97661.77
2018-03-24T05:11:09.718Z,97658.98
2018-03-24T05:13:43.250Z,97658.48
2018-03-24T05:16:16.931Z,97651.78
2018-03-24T05:18:50.715Z,97643.20
2018-03-24T05:21:24.286Z,97652.00
2018-03-24T05:23:57.872Z,97652.17
2018-03-24T05:29:31.008Z,97659.95
2018-03-24T05:32:04.732Z,97655.23
2018-03-24T05:34:38.412Z,97652.64
2018-03-24T05:37:12.111Z,97650.02
2018-03-24T05:39:45.892Z,97658.38
2018-03-24T05:42:19.567Z,97656.98
2018-03-24T05:44:53.154Z,97655.73
2018-03-24T05:47:26.823Z,97654.45
2018-03-24T05:50:00.384Z,97664.93
2018-03-24T05:52:33.978Z,97666.06
2018-03-24T05:55:07.887Z,97660.90
2018-03-24T05:57:41.575Z,97660.73
2018-03-24T06:00:15.322Z,97672.19
2018-03-24T06:02:49.108Z,97667.30
2018-03-24T06:05:22.802Z,97671.58
2018-03-24T06:07:56.388Z,97667.84
2018-03-24T06:10:30.068Z,97669.77
2018-03-24T06:13:03.714Z,97675.42
2018-03-24T06:15:37.382Z,97668.42
2018-03-24T06:18:11.099Z,97666.39
2018-03-24T06:20:44.795Z,97672.35
2018-03-24T06:23:18.491Z,97669.27
2018-03-24T06:25:52.035Z,97666.69
2018-03-24T06:28:25.698Z,97665.17
2018-03-24T06:31:02.278Z,97664.08
2018-03-24T06:33:36.046Z,97665.84
2018-03-24T06:36:12.246Z,97664.38
2018-03-24T06:38:46.008Z,97672.94
2018-03-24T06:41:19.664Z,97673.70
2018-03-24T06:43:53.468Z,97672.21
2018-03-24T06:46:27.066Z,97680.88
2018-03-24T06:49:00.783Z,97677.49
2018-03-24T06:51:34.706Z,97679.73
2018-03-24T06:54:08.370Z,97680.25
2018-03-24T06:56:42.047Z,97676.37
2018-03-24T06:59:15.770Z,97679.86
2018-03-24T07:01:49.618Z,97683.00
2018-03-24T07:04:23.310Z,97684.61
2018-03-24T07:06:56.931Z,97677.64
2018-03-24T07:09:30.622Z,97674.56
2018-03-24T07:12:04.454Z,97675.87
2018-03-24T07:14:38.002Z,97683.36
2018-03-24T07:23:10.262Z,97677.26
2018-03-24T07:25:44.027Z,97678.21
2018-03-24T07:28:17.764Z,97673.70
2018-03-24T07:30:51.518Z,97676.79
2018-03-24T07:33:25.232Z,97683.45
2018-03-24T07:35:58.842Z,97684.89
2018-03-24T07:38:32.519Z,97686.39
2018-03-24T07:41:06.131Z,97684.08
2018-03-24T07:43:39.912Z,97686.33
2018-03-24T07:46:13.491Z,97689.66
2018-03-24T07:48:47.207Z,97695.03
2018-03-24T07:51:20.863Z,97692.30
2018-03-24T07:53:54.578Z,97697.23
2018-03-24T07:56:28.363Z,97699.90
2018-03-24T07:59:02.129Z,97697.80
2018-03-24T08:01:35.937Z,97695.67
2018-03-24T08:04:09.478Z,97699.38
2018-03-24T08:06:43.303Z,97702.61
2018-03-24T08:09:17.037Z,97702.70
2018-03-24T08:11:50.550Z,97705.92
2018-03-24T08:14:24.246Z,97704.58
2018-03-24T08:17:08.654Z,97706.17
2018-03-24T08:19:42.222Z,97706.45
2018-03-24T08:22:15.863Z,97703.57
2018-03-24T08:24:49.511Z,97711.03
2018-03-24T08:27:23.049Z,97715.03
2018-03-24T08:29:56.729Z,97715.84
2018-03-24T08:32:30.478Z,97720.06
2018-03-24T08:35:04.082Z,97722.62
2018-03-24T08:37:37.842Z,97724.06
2018-03-24T08:40:11.557Z,97728.03
2018-03-24T08:42:45.200Z,97726.42
2018-03-24T08:45:18.787Z,97733.36
2018-03-24T08:47:52.609Z,97734.70
2018-03-24T08:50:26.336Z,97733.64
2018-03-24T08:52:59.906Z,97732.13
2018-03-24T08:55:33.510Z,97741.86
2018-03-24T08:58:07.208Z,97743.17
2018-03-24T09:00:40.947Z,97740.31
2018-03-24T09:03:14.654Z,97741.89
2018-03-24T09:05:48.291Z,97745.87
2018-03-24T09:08:22.078Z,97749.58
2018-03-24T09:10:55.934Z,97752.34
2018-03-24T09:13:29.767Z,97750.27
2018-03-24T09:16:03.481Z,97759.34
2018-03-24T09:18:37.211Z,97749.33
2018-03-24T09:21:10.868Z,97752.56
2018-03-24T09:23:44.470Z,97751.05
2018-03-24T09:26:18.099Z,97753.56
2018-03-24T09:28:51.747Z,97751.02
2018-03-24T09:31:25.476Z,97749.98
2018-03-24T09:33:59.196Z,97756.05
2018-03-24T09:36:32.847Z,97750.25
2018-03-24T09:39:06.410Z,97747.09
2018-03-24T09:41:40.175Z,97746.28
2018-03-24T09:44:13.768Z,97748.18
2018-03-24T09:46:47.498Z,97755.58
2018-03-24T09:49:21.091Z,97757.97
2018-03-24T09:51:54.780Z,97750.50
2018-03-24T09:54:28.724Z,97750.45
2018-03-24T09:57:02.462Z,97751.87
2018-03-24T09:59:36.230Z,97757.19
2018-03-24T10:02:10.054Z,97754.22
2018-03-24T10:04:43.796Z,97755.70
2018-03-24T10:07:17.499Z,97748.05
2018-03-24T10:09:51.222Z,97745.51
2018-03-24T10:12:24.967Z,97741.95
2018-03-24T10:14:58.799Z,97733.98
2018-03-24T10:17:32.506Z,97745.96
2018-03-24T10:20:06.162Z,97739.08
2018-03-24T10:22:51.703Z,97738.77
2018-03-24T10:25:25.382Z,97740.47
2018-03-24T10:27:59.175Z,97735.19
2018-03-24T10:30:32.946Z,97732.59
2018-03-24T10:33:06.556Z,97731.49
2018-03-24T10:35:40.137Z,97730.33
2018-03-24T10:38:13.896Z,97727.78
2018-03-24T10:40:47.448Z,97728.98
2018-03-24T10:43:26.845Z,97725.00
2018-03-24T10:46:00.543Z,97732.48
2018-03-24T10:48:34.217Z,97726.09
2018-03-24T10:51:07.838Z,97726.62
2018-03-24T10:53:41.546Z,97728.46
2018-03-24T10:56:15.133Z,97719.17
2018-03-24T10:58:48.943Z,97718.78
2018-03-24T11:01:24.943Z,97716.38
2018-03-24T11:03:58.557Z,97716.20
2018-03-24T11:06:32.272Z,97715.78
2018-03-24T11:09:05.927Z,97723.83
2018-03-24T11:11:39.471Z,97714.03
2018-03-24T11:14:13.067Z,97712.00
2018-03-24T11:16:46.818Z,97712.38
2018-03-24T11:19:20.608Z,97705.44
2018-03-24T11:21:54.351Z,97708.31
2018-03-24T11:24:27.895Z,97712.50
2018-03-24T11:30:10.330Z,97718.61
2018-03-24T11:32:44.078Z,97721.26
2018-03-24T11:35:17.752Z,97709.53
2018-03-24T11:37:51.498Z,97718.22
2018-03-24T11:40:25.163Z,97713.39
2018-03-24T11:42:58.834Z,97709.41
2018-03-24T11:45:32.558Z,97718.31
2018-03-24T11:48:06.299Z,97705.66
2018-03-24T11:50:40.099Z,97702.27
2018-03-24T11:53:13.903Z,97703.06
2018-03-24T11:55:47.734Z,97699.73
2018-03-24T11:58:21.289Z,97704.70
2018-03-24T12:00:54.878Z,97704.92
2018-03-24T12:03:28.630Z,97710.17
2018-03-24T12:06:02.414Z,97704.72
2018-03-24T12:08:36.218Z,97698.09
2018-03-24T12:11:10.059Z,97706.49
2018-03-24T12:13:43.897Z,97699.61
2018-03-24T12:16:17.606Z,97706.27
2018-03-24T12:18:51.213Z,97698.99
2018-03-24T12:21:24.864Z,97693.90
2018-03-24T12:23:58.532Z,97700.31
2018-03-24T12:26:32.173Z,97705.11
2018-03-24T12:29:05.926Z,97707.38
2018-03-24T12:31:39.598Z,97709.16
2018-03-24T12:34:13.263Z,97708.20
2018-03-24T12:36:46.926Z,97701.19
2018-03-24T12:39:20.535Z,97706.06
2018-03-24T12:41:54.263Z,97703.63
2018-03-24T12:44:27.858Z,97695.72
2018-03-24T12:47:01.613Z,97703.59
2018-03-24T12:49:35.198Z,97694.02
2018-03-24T12:52:08.996Z,97692.79
2018-03-24T12:54:42.582Z,97701.84
2018-03-24T12:57:16.331Z,97700.81
2018-03-24T12:59:50.066Z,97703.11
2018-03-24T13:02:23.784Z,97704.42
2018-03-24T13:04:57.491Z,97700.02
2018-03-24T13:07:31.223Z,97696.50
2018-03-24T13:10:04.908Z,97690.26
2018-03-24T13:12:38.506Z,97700.35
2018-03-24T13:15:12.147Z,97693.30
2018-03-24T13:17:45.847Z,97690.13
2018-03-24T13:20:19.510Z,97693.29
2018-03-24T13:22:53.111Z,97693.63
2018-03-24T13:25:26.786Z,97699.08
2018-03-24T13:28:00.627Z,97699.00
2018-03-24T13:30:34.188Z,97703.57
2018-03-24T13:33:07.967Z,97697.24
2018-03-24T13:35:41.623Z,97706.63
2018-03-24T13:38:15.180Z,97706.20
2018-03-24T13:40:48.879Z,97704.72
2018-03-24T13:43:22.594Z,97699.88
2018-03-24T13:45:56.382Z,97700.92
2018-03-24T13:48:30.026Z,97690.45
2018-03-24T13:51:03.759Z,97697.17
2018-03-24T13:53:37.455Z,97687.70
2018-03-24T13:56:11.298Z,97692.33
2018-03-24T13:58:44.896Z,97690.03
2018-03-24T14:01:18.523Z,97683.23
2018-03-24T14:03:52.086Z,97692.30
2018-03-24T14:06:25.709Z,97693.88
2018-03-24T14:08:59.432Z,97696.48
2018-03-24T14:11:33.152Z,97696.20
2018-03-24T14:14:06.739Z,97691.56
2018-03-24T14:16:40.502Z,97685.52
2018-03-24T14:19:14.252Z,97684.50
2018-03-24T14:21:47.967Z,97685.80
2018-03-24T14:24:21.719Z,97684.47
2018-03-24T14:26:59.467Z,97688.73
2018-03-24T14:29:33.266Z,97682.74
2018-03-24T14:32:07.031Z,97687.32
2018-03-24T14:34:40.911Z,97685.84
2018-03-24T14:37:14.539Z,97683.51
2018-03-24T14:39:48.155Z,97686.76
2018-03-24T14:42:21.734Z,97680.88
2018-03-24T14:44:55.490Z,97680.48
2018-03-24T14:47:29.288Z,97667.48
2018-03-24T14:50:02.987Z,97676.73
2018-03-24T14:52:36.823Z,97682.13
2018-03-24T14:55:10.415Z,97678.84
2018-03-24T14:57:44.093Z,97675.38
2018-03-24T15:00:17.655Z,97676.59
2018-03-24T15:02:51.262Z,97679.34
2018-03-24T15:05:24.991Z,97677.02
2018-03-24T15:07:58.582Z,97682.23
2018-03-24T15:10:32.160Z,97680.36
2018-03-24T15:13:05.994Z,97686.39
2018-03-24T15:15:39.683Z,97688.28
2018-03-24T15:18:13.413Z,97682.86
2018-03-24T15:20:47.259Z,97679.26
2018-03-24T15:23:21.175Z,97679.45
2018-03-24T15:25:54.743Z,97675.72
2018-03-24T15:28:28.459Z,97684.50
2018-03-24T15:31:14.238Z,97677.21
2018-03-24T15:33:59.859Z,97676.26
2018-03-24T15:36:43.500Z,97682.47
2018-03-24T15:39:17.170Z,97677.95
2018-03-24T15:41:50.790Z,97683.74
2018-03-24T15:44:24.559Z,97679.52
2018-03-24T15:49:57.803Z,97692.22
2018-03-24T15:52:31.514Z,97691.91
2018-03-24T15:55:05.099Z,97699.50
2018-03-24T15:57:39.126Z,97707.67
2018-03-24T16:00:12.787Z,97698.48
2018-03-24T16:02:46.455Z,97703.50
2018-03-24T16:05:20.146Z,97692.70
2018-03-24T16:07:53.745Z,97695.05
2018-03-24T16:10:27.467Z,97703.53
2018-03-24T16:13:01.070Z,97695.97
2018-03-24T16:15:34.716Z,97697.91
2018-03-24T16:18:08.270Z,97698.02
2018-03-24T16:20:42.004Z,97703.42
2018-03-24T16:23:15.663Z,97704.72
2018-03-24T16:25:49.335Z,97699.16
2018-03-24T16:28:23.045Z,97700.17
2018-03-24T16:30:56.841Z,97701.22
2018-03-24T16:33:30.571Z,97709.02
2018-03-24T16:36:04.282Z,97715.02
2018-03-24T16:38:37.874Z,97718.88
2018-03-24T16:41:11.634Z,97720.06
2018-03-24T16:43:45.375Z,97721.41
2018-03-24T16:46:19.123Z,97722.95
2018-03-24T16:48:52.892Z,97732.41
2018-03-24T16:51:26.676Z,97735.23
2018-03-24T16:54:00.310Z,97737.08
2018-03-24T16:56:33.918Z,97735.91
2018-03-24T16:59:07.705Z,97735.05
2018-03-24T17:01:41.443Z,97743.17
2018-03-24T17:04:15.124Z,97734.97
2018-03-24T17:06:48.889Z,97744.20
2018-03-24T17:09:22.660Z,97744.08
2018-03-24T17:11:56.424Z,97743.56
2018-03-24T17:14:30.079Z,97748.40
2018-03-24T17:17:03.819Z,97747.19
2018-03-24T17:19:37.483Z,97751.09
2018-03-24T17:22:11.017Z,97752.14
2018-03-24T17:24:44.711Z,97752.20
2018-03-24T17:27:18.467Z,97760.13
2018-03-24T17:29:52.184Z,97756.61
2018-03-24T17:32:25.748Z,97768.45
2018-03-24T17:35:00.060Z,97771.80
2018-03-24T17:37:33.802Z,97772.31
2018-03-24T17:40:07.622Z,97769.32
2018-03-24T17:42:41.256Z,97769.75
2018-03-24T17:45:14.870Z,97769.28
2018-03-24T17:47:48.410Z,97774.09
2018-03-24T17:50:22.026Z,97779.31
2018-03-24T17:52:55.675Z,97774.89
2018-03-24T17:55:29.345Z,97780.94
2018-03-24T17:58:03.052Z,97779.36
2018-03-24T18:00:36.652Z,97782.84
2018-03-24T18:03:10.475Z,97781.66
2018-03-24T18:05:44.238Z,97783.92
2018-03-24T18:08:18.078Z,97788.84
2018-03-24T18:10:51.874Z,97791.85
2018-03-24T18:13:25.523Z,97791.50
2018-03-24T18:15:59.203Z,97795.70
2018-03-24T18:18:32.730Z,97794.73
2018-03-24T18:21:06.409Z,97788.77
2018-03-24T18:23:39.950Z,97798.13
2018-03-24T18:26:13.678Z,97797.58
2018-03-24T18:28:47.330Z,97799.32
2018-03-24T18:31:21.155Z,97809.70
2018-03-24T18:33:54.694Z,97806.70
2018-03-24T18:36:28.344Z,97813.94
2018-03-24T18:39:01.941Z,97813.84
2018-03-24T18:41:35.698Z,97807.08
2018-03-24T18:44:09.357Z,97810.97
2018-03-24T18:46:43.074Z,97808.48
2018-03-24T18:49:16.708Z,97819.33
2018-03-24T18:51:50.527Z,97817.12
2018-03-24T18:54:24.310Z,97812.90
2018-03-24T18:56:57.990Z,97812.04
2018-03-24T18:59:31.577Z,97812.59
2018-03-24T19:02:05.126Z,97815.45
2018-03-24T19:04:38.790Z,97818.84
2018-03-24T19:07:12.391Z,97818.91
2018-03-24T19:09:46.077Z,97824.44
2018-03-24T19:12:19.796Z,97829.81
2018-03-24T19:14:53.317Z,97829.08
2018-03-24T19:17:27.057Z,97831.95
2018-03-24T19:20:00.732Z,97832.80
2018-03-24T19:22:34.346Z,97843.45
2018-03-24T19:25:08.205Z,97845.86
2018-03-24T19:27:41.869Z,97846.45
2018-03-24T19:30:15.546Z,97843.20
2018-03-24T19:32:49.215Z,97843.17
2018-03-24T19:35:22.822Z,97843.82
2018-03-24T19:37:56.428Z,97848.81
2018-03-24T19:40:30.218Z,97849.94
2018-03-24T19:43:03.777Z,97847.58
2018-03-24T19:45:37.438Z,97852.95
2018-03-24T19:48:11.038Z,97847.19
2018-03-24T19:50:44.752Z,97844.81
2018-03-24T19:53:18.393Z,97848.12
2018-03-24T19:55:52.070Z,97845.36
2018-03-24T19:58:25.755Z,97845.19
2018-03-24T20:00:59.470Z,97840.70
2018-03-24T20:03:33.154Z,97846.13
2018-03-24T20:06:06.702Z,97841.55
2018-03-24T20:08:40.357Z,97848.08
2018-03-24T20:11:14.028Z,97846.64
2018-03-24T20:13:47.748Z,97852.41
2018-03-24T20:16:21.243Z,97850.31
2018-03-24T20:18:54.977Z,97850.21
2018-03-24T20:21:28.574Z,97851.95
2018-03-24T20:24:02.562Z,97849.56
2018-03-24T20:26:36.258Z,97851.56
2018-03-24T20:29:09.899Z,97847.97
2018-03-24T20:31:43.470Z,97846.84
2018-03-24T20:34:17.126Z,97852.52
2018-03-24T20:36:50.757Z,97851.77
2018-03-24T20:39:24.401Z,97850.23
2018-03-24T20:41:58.012Z,97856.05
2018-03-24T20:44:31.598Z,97855.00
2018-03-24T20:47:05.090Z,97864.76
2018-03-24T20:49:38.670Z,97856.20
2018-03-24T20:52:12.222Z,97855.80
2018-03-24T20:54:45.833Z,97859.62
2018-03-24T20:57:19.498Z,97860.27
2018-03-24T20:59:53.154Z,97866.13
2018-03-24T21:02:26.682Z,97865.34
2018-03-24T21:05:00.326Z,97869.56
2018-03-24T21:07:33.866Z,97861.30
2018-03-24T21:10:07.478Z,97873.55
2018-03-24T21:12:41.126Z,97869.70
2018-03-24T21:15:14.705Z,97874.59
2018-03-24T21:17:48.438Z,97874.34
2018-03-24T21:20:22.142Z,97876.69
2018-03-24T21:22:55.796Z,97879.57
2018-03-24T21:25:29.422Z,97876.63
2018-03-24T21:28:03.021Z,97882.20
2018-03-24T21:30:36.612Z,97880.66
2018-03-24T21:33:10.138Z,97883.25
2018-03-24T21:35:43.685Z,97882.51
2018-03-24T21:38:17.241Z,97882.84
2018-03-24T21:40:50.830Z,97881.36
2018-03-24T21:43:24.594Z,97883.52
2018-03-24T21:45:58.150Z,97886.84
2018-03-24T21:48:31.778Z,97892.91
2018-03-24T21:51:05.362Z,97900.66
2018-03-24T21:53:38.936Z,97900.11
2018-03-24T21:56:12.570Z,97895.89
2018-03-24T21:58:46.171Z,97895.09
2018-03-24T22:01:19.899Z,97898.28
2018-03-24T22:03:53.376Z,97904.49
2018-03-24T22:06:27.058Z,97896.59
2018-03-24T22:09:00.691Z,97898.20
2018-03-24T22:11:34.339Z,97898.66
2018-03-24T22:14:07.862Z,97894.17
2018-03-24T22:16:41.458Z,97896.22
2018-03-24T22:19:15.266Z,97896.81
2018-03-24T22:21:48.973Z,97897.84
2018-03-24T22:24:22.626Z,97891.67
2018-03-24T22:26:56.266Z,97888.74
2018-03-24T22:29:29.818Z,97890.10
2018-03-24T22:32:03.364Z,97889.79
2018-03-24T22:34:37.033Z,97885.47
2018-03-24T22:37:10.757Z,97888.14
2018-03-24T22:39:44.380Z,97890.47
2018-03-24T22:42:17.957Z,97890.19
2018-03-24T22:44:51.469Z,97886.77
2018-03-24T22:47:25.146Z,97892.83
2018-03-24T22:49:58.717Z,97897.45
2018-03-24T22:52:32.392Z,97895.31
2018-03-24T22:55:06.178Z,97892.03
2018-03-24T22:57:39.802Z,97893.12
2018-03-24T23:00:13.480Z,97893.72
2018-03-24T23:02:47.064Z,97895.55
2018-03-24T23:05:20.838Z,97888.39
2018-03-24T23:07:54.538Z,97893.95
2018-03-24T23:10:28.143Z,97886.12
2018-03-24T23:13:01.861Z,97884.02
2018-03-24T23:15:35.415Z,97884.78
2018-03-24T23:18:09.098Z,97878.15
2018-03-24T23:20:42.677Z,97880.63
2018-03-24T23:23:16.279Z,97880.41
2018-03-24T23:25:49.846Z,97882.86
2018-03-24T23:28:23.490Z,97882.91
2018-03-24T23:30:57.102Z,97884.88
2018-03-24T23:33:30.705Z,97884.23
2018-03-24T23:36:04.277Z,97885.88
2018-03-24T23:38:37.889Z,97888.35
2018-03-24T23:41:11.497Z,97895.67
2018-03-24T23:43:45.092Z,97892.23
2018-03-24T23:46:18.658Z,97895.13
2018-03-24T23:48:52.386Z,97903.05
2018-03-24T23:51:26.037Z,97895.00
2018-03-24T23:53:59.644Z,97899.33
2018-03-24T23:56:33.249Z,97899.17
2018-03-24T23:59:06.833Z,97895.97
